createdAt,value
2023-02-28T00:01:37.655Z,56.90
2023-02-28T00:04:06.498Z,56.90
2023-02-28T00:06:34.950Z,56.90
2023-02-28T00:09:04.880Z,56.90
2023-02-28T00:11:33.530Z,56.90
2023-02-28T00:14:01.904Z,56.90
2023-02-28T00:16:30.407Z,57.00
2023-02-28T00:18:58.711Z,57.00
2023-02-28T00:21:27.723Z,57.00
2023-02-28T00:23:56.158Z,57.00
2023-02-28T00:26:25.843Z,56.90
2023-02-28T00:28:54.781Z,56.90
2023-02-28T00:31:24.783Z,56.90
2023-02-28T00:33:53.104Z,56.80
2023-02-28T00:36:22.845Z,56.90
2023-02-28T00:38:51.564Z,56.80
2023-02-28T00:41:20.063Z,56.80
2023-02-28T00:43:50.895Z,56.80
2023-02-28T00:46:19.547Z,56.90
2023-02-28T00:48:48.011Z,56.90
2023-02-28T00:51:16.707Z,56.90
2023-02-28T00:53:45.120Z,56.90
2023-02-28T00:56:13.481Z,56.90
2023-02-28T00:58:42.116Z,57.00
2023-02-28T01:01:12.088Z,56.90
2023-02-28T01:03:40.708Z,57.00
2023-02-28T01:06:09.514Z,57.00
2023-02-28T01:08:37.944Z,57.00
2023-02-28T01:11:12.104Z,57.00
2023-02-28T01:13:42.368Z,57.00
2023-02-28T01:16:12.139Z,57.00
2023-02-28T01:18:41.149Z,57.00
2023-02-28T01:21:13.253Z,57.00
2023-02-28T01:23:42.620Z,57.10
2023-02-28T01:26:15.349Z,57.10
2023-02-28T01:28:44.358Z,57.00
2023-02-28T01:31:14.845Z,56.90
2023-02-28T01:33:43.427Z,56.90
2023-02-28T01:36:14.445Z,56.90
2023-02-28T01:38:43.149Z,56.80
2023-02-28T01:41:20.024Z,56.80
2023-02-28T01:44:00.169Z,56.90
2023-02-28T01:46:29.801Z,56.90
2023-02-28T01:49:05.589Z,57.10
2023-02-28T01:51:40.563Z,57.00
2023-02-28T01:54:15.480Z,57.00
2023-02-28T01:56:49.816Z,57.60
2023-02-28T01:59:26.339Z,57.00
2023-02-28T02:01:56.615Z,57.10
2023-02-28T02:04:29.261Z,57.00
2023-02-28T02:06:57.739Z,57.10
2023-02-28T02:09:26.150Z,57.00
2023-02-28T02:11:58.101Z,56.90
2023-02-28T02:15:00.078Z,56.90
2023-02-28T02:17:36.784Z,56.90
2023-02-28T02:21:14.803Z,56.90
2023-02-28T02:24:39.155Z,56.90
2023-02-28T02:27:24.674Z,56.80
2023-02-28T02:30:39.338Z,56.90
2023-02-28T02:33:31.159Z,56.90
2023-02-28T02:36:09.405Z,57.00
2023-02-28T02:38:47.184Z,57.00
2023-02-28T02:41:26.797Z,57.10
2023-02-28T02:44:03.368Z,57.00
2023-02-28T02:46:36.384Z,57.00
2023-02-28T02:49:08.787Z,56.90
2023-02-28T02:51:40.606Z,56.90
2023-02-28T02:54:16.827Z,57.20
2023-02-28T02:56:49.355Z,56.90
2023-02-28T02:59:22.225Z,56.90
2023-02-28T03:01:54.598Z,56.90
2023-02-28T03:04:26.370Z,56.90
2023-02-28T03:06:56.359Z,56.90
2023-02-28T03:09:25.141Z,56.90
2023-02-28T03:11:56.998Z,56.80
2023-02-28T03:14:44.737Z,56.80
2023-02-28T03:17:38.280Z,56.90
2023-02-28T03:20:20.432Z,56.90
2023-02-28T03:23:01.924Z,56.80
2023-02-28T03:25:37.781Z,56.80
2023-02-28T03:28:16.023Z,56.80
2023-02-28T03:30:54.854Z,56.80
2023-02-28T03:33:28.171Z,56.90
2023-02-28T03:36:00.528Z,56.90
2023-02-28T03:38:37.100Z,56.90
2023-02-28T03:41:13.262Z,56.90
2023-02-28T03:43:45.826Z,56.90
2023-02-28T03:46:22.170Z,57.00
2023-02-28T03:48:57.046Z,57.00
2023-02-28T03:51:29.358Z,57.00
2023-02-28T03:54:04.969Z,57.10
2023-02-28T03:56:40.717Z,57.10
2023-02-28T03:59:15.924Z,57.10
2023-02-28T04:01:46.636Z,57.30
2023-02-28T04:04:16.653Z,57.30
2023-02-28T04:06:46.552Z,57.00
2023-02-28T04:09:17.039Z,57.00
2023-02-28T04:11:48.217Z,57.00
2023-02-28T04:14:16.549Z,56.90
2023-02-28T04:16:45.279Z,57.50
2023-02-28T04:19:15.698Z,56.90
2023-02-28T04:21:47.036Z,56.80
2023-02-28T04:24:19.104Z,56.80
2023-02-28T04:26:49.596Z,56.70
2023-02-28T04:29:22.878Z,56.70
2023-02-28T04:31:51.694Z,56.70
2023-02-28T04:34:20.957Z,56.70
2023-02-28T04:37:02.725Z,56.60
2023-02-28T04:39:41.970Z,56.40
2023-02-28T04:42:10.483Z,56.50
2023-02-28T04:44:38.815Z,56.40
2023-02-28T04:47:07.232Z,56.30
2023-02-28T04:49:35.845Z,56.30
2023-02-28T04:52:04.476Z,56.40
2023-02-28T04:54:32.920Z,56.30
2023-02-28T04:57:02.546Z,56.40
2023-02-28T04:59:30.836Z,56.50
2023-02-28T05:01:59.249Z,56.50
2023-02-28T05:04:27.790Z,56.50
2023-02-28T05:06:56.389Z,56.50
2023-02-28T05:09:24.817Z,56.50
2023-02-28T05:11:53.088Z,56.50
2023-02-28T05:14:23.179Z,56.40
2023-02-28T05:16:51.549Z,56.50
2023-02-28T05:19:20.095Z,56.20
2023-02-28T05:21:53.965Z,56.20
2023-02-28T05:24:23.807Z,56.20
2023-02-28T05:26:54.755Z,56.20
2023-02-28T05:29:24.943Z,56.30
2023-02-28T05:31:53.526Z,56.30
2023-02-28T05:34:21.910Z,56.40
2023-02-28T05:36:50.534Z,56.40
2023-02-28T05:39:18.832Z,56.40
2023-02-28T05:41:47.188Z,56.30
2023-02-28T05:44:15.573Z,56.40
2023-02-28T05:46:45.225Z,57.00
2023-02-28T05:49:13.608Z,56.50
2023-02-28T05:51:41.975Z,57.10
2023-02-28T05:54:11.553Z,56.50
2023-02-28T05:56:41.730Z,56.50
2023-02-28T05:59:10.268Z,56.50
2023-02-28T06:01:48.967Z,56.40
2023-02-28T06:04:31.220Z,56.50
2023-02-28T06:07:00.944Z,56.50
2023-02-28T06:09:30.121Z,56.50
2023-02-28T06:12:00.425Z,56.40
2023-02-28T06:14:29.029Z,56.40
2023-02-28T06:16:59.330Z,56.40
2023-02-28T06:19:27.793Z,56.40
2023-02-28T06:21:57.929Z,56.40
2023-02-28T06:24:29.078Z,56.40
2023-02-28T06:26:58.613Z,56.40
2023-02-28T06:29:27.648Z,56.30
2023-02-28T06:31:56.388Z,56.30
2023-02-28T06:34:26.172Z,56.30
2023-02-28T06:36:54.726Z,56.30
2023-02-28T06:39:23.131Z,56.30
2023-02-28T06:41:55.677Z,56.30
2023-02-28T06:44:25.596Z,56.40
2023-02-28T06:46:53.907Z,56.50
2023-02-28T06:49:22.281Z,56.50
2023-02-28T06:51:52.024Z,56.50
2023-02-28T06:54:20.348Z,56.50
2023-02-28T06:56:48.864Z,56.60
2023-02-28T06:59:17.392Z,56.60
2023-02-28T07:01:46.120Z,56.60
2023-02-28T07:04:15.175Z,56.60
2023-02-28T07:06:43.584Z,56.60
2023-02-28T07:09:14.890Z,56.60
2023-02-28T07:11:44.006Z,56.70
2023-02-28T07:14:12.443Z,56.70
2023-02-28T07:16:40.756Z,56.70
2023-02-28T07:19:09.093Z,56.70
2023-02-28T07:21:37.461Z,56.70
2023-02-28T07:24:06.528Z,56.70
2023-02-28T07:26:36.216Z,56.70
2023-02-28T07:29:05.485Z,56.70
2023-02-28T07:31:33.838Z,56.70
2023-02-28T07:34:02.192Z,56.70
2023-02-28T07:36:30.749Z,56.70
2023-02-28T07:39:00.917Z,56.60
2023-02-28T07:41:31.150Z,56.60
2023-02-28T07:44:01.540Z,56.50
2023-02-28T07:46:36.557Z,56.50
2023-02-28T07:49:05.650Z,56.50
2023-02-28T07:51:34.231Z,56.50
2023-02-28T07:54:02.610Z,56.50
2023-02-28T07:56:31.209Z,56.60
2023-02-28T07:59:02.570Z,56.70
2023-02-28T08:01:31.355Z,56.70
2023-02-28T08:03:59.895Z,56.80
2023-02-28T08:06:28.236Z,56.80
2023-02-28T08:08:57.206Z,56.80
2023-02-28T08:11:25.645Z,56.80
2023-02-28T08:13:53.883Z,56.90
2023-02-28T08:16:24.109Z,56.90
2023-02-28T08:18:54.001Z,57.00
2023-02-28T08:21:23.374Z,57.10
2023-02-28T08:23:53.251Z,57.10
2023-02-28T08:26:22.487Z,57.10
2023-02-28T08:28:51.542Z,57.20
2023-02-28T08:31:20.869Z,57.20
2023-02-28T08:33:52.116Z,57.20
2023-02-28T08:36:21.247Z,57.80
2023-02-28T08:38:49.539Z,57.20
2023-02-28T08:41:17.828Z,57.20
2023-02-28T08:43:46.162Z,57.30
2023-02-28T08:46:15.813Z,57.30
2023-02-28T08:48:44.848Z,57.40
2023-02-28T08:51:34.639Z,57.30
2023-02-28T08:54:03.338Z,57.40
2023-02-28T08:56:31.810Z,57.60
2023-02-28T08:59:00.239Z,57.60
2023-02-28T09:01:30.967Z,57.80
2023-02-28T09:04:00.310Z,58.00
2023-02-28T09:06:29.757Z,58.00
2023-02-28T09:09:02.132Z,58.10
2023-02-28T09:11:32.716Z,58.20
2023-02-28T09:14:01.386Z,58.20
2023-02-28T09:16:29.763Z,58.20
2023-02-28T09:18:58.123Z,58.20
2023-02-28T09:21:26.414Z,58.20
2023-02-28T09:23:54.919Z,58.20
2023-02-28T09:26:32.572Z,58.10
2023-02-28T09:29:07.686Z,58.00
2023-02-28T09:31:36.037Z,58.00
2023-02-28T09:34:05.669Z,57.90
2023-02-28T09:36:43.842Z,57.80
2023-02-28T09:39:13.478Z,57.80
2023-02-28T09:41:51.755Z,57.80
2023-02-28T09:44:30.114Z,57.80
2023-02-28T09:47:02.492Z,57.80
2023-02-28T09:49:40.236Z,57.60
2023-02-28T09:52:14.474Z,57.70
2023-02-28T09:54:43.273Z,57.70
2023-02-28T09:57:33.835Z,57.60
2023-02-28T10:00:13.598Z,57.60
2023-02-28T10:03:14.700Z,57.60
2023-02-28T10:05:53.130Z,57.60
2023-02-28T10:08:27.746Z,57.70
2023-02-28T10:10:59.913Z,57.80
2023-02-28T10:13:36.722Z,57.80
2023-02-28T10:16:10.768Z,57.90
2023-02-28T10:18:48.347Z,57.80
2023-02-28T10:21:23.960Z,57.80
2023-02-28T10:24:04.515Z,58.00
2023-02-28T10:26:34.644Z,57.90
2023-02-28T10:29:05.131Z,57.90
2023-02-28T10:31:33.581Z,57.80
2023-02-28T10:34:02.479Z,57.80
2023-02-28T10:36:31.167Z,57.80
2023-02-28T10:39:00.870Z,57.40
2023-02-28T10:41:35.853Z,57.20
2023-02-28T10:44:22.040Z,57.30
2023-02-28T10:46:51.482Z,56.90
2023-02-28T10:49:24.006Z,57.10
2023-02-28T10:51:57.887Z,57.20
2023-02-28T10:54:32.506Z,57.20
2023-02-28T10:57:19.229Z,57.10
2023-02-28T10:59:53.992Z,56.60
2023-02-28T11:02:35.950Z,56.50
2023-02-28T11:05:25.791Z,56.00
2023-02-28T11:07:55.758Z,56.40
2023-02-28T11:10:29.282Z,56.40
2023-02-28T11:13:00.990Z,56.10
2023-02-28T11:15:34.196Z,55.70
2023-02-28T11:18:04.764Z,55.60
2023-02-28T11:20:35.878Z,55.70
2023-02-28T11:23:08.156Z,55.60
2023-02-28T11:25:40.316Z,55.70
2023-02-28T11:28:27.352Z,55.50
2023-02-28T11:31:20.625Z,55.30
2023-02-28T11:33:51.898Z,54.80
2023-02-28T11:36:25.594Z,55.10
2023-02-28T11:38:55.528Z,54.90
2023-02-28T11:42:03.100Z,55.00
2023-02-28T11:44:52.427Z,54.40
2023-02-28T11:47:35.066Z,54.40
2023-02-28T11:50:23.594Z,54.20
2023-02-28T11:52:56.315Z,53.80
2023-02-28T11:55:30.116Z,53.90
2023-02-28T11:58:32.491Z,53.90
2023-02-28T12:01:15.048Z,53.60
2023-02-28T12:04:01.856Z,53.90
2023-02-28T12:06:38.987Z,53.30
2023-02-28T12:09:42.471Z,53.60
2023-02-28T12:12:25.604Z,53.50
2023-02-28T12:15:20.594Z,53.30
2023-02-28T12:18:06.780Z,52.70
2023-02-28T12:20:46.056Z,53.10
2023-02-28T12:23:43.908Z,52.70
2023-02-28T12:26:22.256Z,52.50
2023-02-28T12:28:55.735Z,52.70
2023-02-28T12:31:27.104Z,52.60
2023-02-28T12:34:02.112Z,52.00
2023-02-28T12:36:32.321Z,52.00
2023-02-28T12:39:05.425Z,52.20
2023-02-28T12:41:42.598Z,51.50
2023-02-28T12:44:16.740Z,51.30
2023-02-28T12:46:50.604Z,51.60
2023-02-28T12:49:21.695Z,51.80
2023-02-28T12:51:52.197Z,51.90
2023-02-28T12:54:27.431Z,52.10
2023-02-28T12:57:07.730Z,51.60
2023-02-28T12:59:43.850Z,51.40
2023-02-28T13:02:34.657Z,51.50
2023-02-28T13:05:31.639Z,51.20
2023-02-28T13:08:50.034Z,51.40
2023-02-28T13:11:31.388Z,52.20
2023-02-28T13:14:02.136Z,52.00
2023-02-28T13:16:32.650Z,51.80
2023-02-28T13:19:13.448Z,51.40
2023-02-28T13:21:46.719Z,51.40
2023-02-28T13:24:44.201Z,51.70
2023-02-28T13:27:41.619Z,51.60
2023-02-28T13:31:04.856Z,51.80
2023-02-28T13:33:34.250Z,52.00
2023-02-28T13:36:30.371Z,52.20
2023-02-28T13:39:02.999Z,52.10
2023-02-28T13:41:49.585Z,52.20
2023-02-28T13:44:21.000Z,52.20
2023-02-28T13:47:30.571Z,52.40
2023-02-28T13:50:25.931Z,52.10
2023-02-28T13:53:28.619Z,52.20
2023-02-28T13:56:05.647Z,52.80
2023-02-28T13:58:49.000Z,52.40
2023-02-28T14:01:44.732Z,52.20
2023-02-28T14:04:47.998Z,52.20
2023-02-28T14:07:24.090Z,52.10
2023-02-28T14:10:06.359Z,52.40
2023-02-28T14:13:17.105Z,52.40
2023-02-28T14:16:08.350Z,52.70
2023-02-28T14:18:38.868Z,52.10
2023-02-28T14:21:18.877Z,52.40
2023-02-28T14:24:27.155Z,52.30
2023-02-28T14:27:31.080Z,52.10
2023-02-28T14:30:45.522Z,52.40
2023-02-28T14:33:29.057Z,52.50
2023-02-28T14:36:15.860Z,52.60
2023-02-28T14:38:49.260Z,52.50
2023-02-28T14:41:25.742Z,53.20
2023-02-28T14:43:58.532Z,52.70
2023-02-28T14:46:32.942Z,52.80
2023-02-28T14:49:03.378Z,52.90
2023-02-28T14:51:31.756Z,52.90
2023-02-28T14:54:03.232Z,53.40
2023-02-28T14:56:38.006Z,52.80
2023-02-28T14:59:08.031Z,52.90
2023-02-28T15:01:37.730Z,52.90
2023-02-28T15:04:08.872Z,52.80
2023-02-28T15:06:37.284Z,53.50
2023-02-28T15:09:17.171Z,52.90
2023-02-28T15:11:50.843Z,52.80
2023-02-28T15:14:24.316Z,53.00
2023-02-28T15:16:58.621Z,52.80
2023-02-28T15:19:31.804Z,52.80
2023-02-28T15:22:08.137Z,52.80
2023-02-28T15:24:42.361Z,52.80
2023-02-28T15:27:17.175Z,52.80
2023-02-28T15:29:51.859Z,52.90
2023-02-28T15:32:29.711Z,52.90
2023-02-28T15:35:00.944Z,52.80
2023-02-28T15:37:36.111Z,52.90
2023-02-28T15:40:15.482Z,52.90
2023-02-28T15:42:45.643Z,52.90
2023-02-28T15:45:36.125Z,52.90
2023-02-28T15:48:13.634Z,52.60
2023-02-28T15:50:44.142Z,52.80
2023-02-28T15:53:19.484Z,52.60
2023-02-28T15:55:54.582Z,52.50
2023-02-28T15:58:25.100Z,52.70
2023-02-28T16:01:08.979Z,52.60
2023-02-28T16:03:43.592Z,52.50
2023-02-28T16:06:35.294Z,52.70
2023-02-28T16:09:05.831Z,52.60
2023-02-28T16:11:36.236Z,52.70
2023-02-28T16:14:05.061Z,52.70
2023-02-28T16:16:34.482Z,53.00
2023-02-28T16:19:02.820Z,52.60
2023-02-28T16:21:33.041Z,52.70
2023-02-28T16:24:01.361Z,52.60
2023-02-28T16:26:29.799Z,52.60
2023-02-28T16:28:58.254Z,52.60
2023-02-28T16:31:26.906Z,52.70
2023-02-28T16:33:56.415Z,52.60
2023-02-28T16:36:26.892Z,52.70
2023-02-28T16:38:57.362Z,52.80
2023-02-28T16:41:29.214Z,52.80
2023-02-28T16:44:01.415Z,52.90
2023-02-28T16:46:36.595Z,52.80
2023-02-28T16:49:05.318Z,52.90
2023-02-28T16:51:35.738Z,52.80
2023-02-28T16:54:05.934Z,52.80
2023-02-28T16:56:36.234Z,52.90
2023-02-28T16:59:05.452Z,53.00
2023-02-28T17:01:34.418Z,53.00
2023-02-28T17:04:03.085Z,53.20
2023-02-28T17:06:32.980Z,53.00
2023-02-28T17:09:01.598Z,53.00
2023-02-28T17:11:31.626Z,53.00
2023-02-28T17:14:00.248Z,53.00
2023-02-28T17:16:33.054Z,52.90
2023-02-28T17:19:04.989Z,53.00
2023-02-28T17:21:34.123Z,53.00
2023-02-28T17:24:02.739Z,53.10
2023-02-28T17:26:33.124Z,53.00
2023-02-28T17:29:01.606Z,53.10
2023-02-28T17:31:33.056Z,53.10
2023-02-28T17:34:01.686Z,53.10
2023-02-28T17:36:31.032Z,53.20
2023-02-28T17:38:59.676Z,53.20
2023-02-28T17:41:30.768Z,53.20
2023-02-28T17:44:00.563Z,53.20
2023-02-28T17:46:29.963Z,53.20
2023-02-28T17:48:58.601Z,53.30
2023-02-28T17:51:27.098Z,53.40
2023-02-28T17:53:55.553Z,53.40
2023-02-28T17:56:26.685Z,53.50
2023-02-28T17:58:57.345Z,53.50
2023-02-28T18:01:27.938Z,53.50
2023-02-28T18:03:57.037Z,53.60
2023-02-28T18:06:28.588Z,53.80
2023-02-28T18:08:57.143Z,53.70
2023-02-28T18:11:27.158Z,53.60
2023-02-28T18:13:56.861Z,53.70
2023-02-28T18:16:27.456Z,53.70
2023-02-28T18:18:55.918Z,53.80
2023-02-28T18:21:24.223Z,53.80
2023-02-28T18:23:53.248Z,53.80
2023-02-28T18:26:22.205Z,53.90
2023-02-28T18:28:50.546Z,53.90
2023-02-28T18:31:21.964Z,53.90
2023-02-28T18:33:53.694Z,54.00
2023-02-28T18:36:22.742Z,54.10
2023-02-28T18:38:52.056Z,54.30
2023-02-28T18:41:22.566Z,54.00
2023-02-28T18:43:53.119Z,54.10
2023-02-28T18:46:22.794Z,54.00
2023-02-28T18:48:52.571Z,54.00
2023-02-28T18:51:24.233Z,53.90
2023-02-28T18:53:53.329Z,54.20
2023-02-28T18:56:25.102Z,54.00
2023-02-28T18:58:54.379Z,54.30
2023-02-28T19:01:26.926Z,54.10
2023-02-28T19:03:57.330Z,54.10
2023-02-28T19:06:25.694Z,54.10
2023-02-28T19:08:56.068Z,54.10
2023-02-28T19:11:25.376Z,54.30
2023-02-28T19:13:54.052Z,54.20
2023-02-28T19:16:23.705Z,54.10
2023-02-28T19:18:52.482Z,54.10
2023-02-28T19:21:26.063Z,54.10
2023-02-28T19:23:54.798Z,54.10
2023-02-28T19:26:25.501Z,54.10
2023-02-28T19:28:54.145Z,54.00
2023-02-28T19:31:25.917Z,54.00
2023-02-28T19:33:56.255Z,54.10
2023-02-28T19:36:27.613Z,54.30
2023-02-28T19:38:56.012Z,54.20
2023-02-28T19:41:24.382Z,54.20
2023-02-28T19:43:55.284Z,54.30
2023-02-28T19:46:23.689Z,54.20
2023-02-28T19:48:55.340Z,54.10
2023-02-28T19:51:24.213Z,54.20
2023-02-28T19:53:54.079Z,54.20
2023-02-28T19:56:22.452Z,54.30
2023-02-28T19:58:50.871Z,54.30
2023-02-28T20:01:20.874Z,54.40
2023-02-28T20:03:51.948Z,54.40
2023-02-28T20:06:20.683Z,54.50
2023-02-28T20:08:49.035Z,54.50
2023-02-28T20:11:18.906Z,54.40
2023-02-28T20:13:47.652Z,54.50
2023-02-28T20:16:17.167Z,54.50
2023-02-28T20:18:46.233Z,54.50
2023-02-28T20:21:16.600Z,54.60
2023-02-28T20:23:48.633Z,54.50
2023-02-28T20:26:20.213Z,54.50
2023-02-28T20:28:49.195Z,54.60
2023-02-28T20:31:20.893Z,54.60
2023-02-28T20:33:49.842Z,54.60
2023-02-28T20:36:20.293Z,54.60
2023-02-28T20:38:52.851Z,54.50
2023-02-28T20:41:23.112Z,54.50
2023-02-28T20:43:55.745Z,54.60
2023-02-28T20:46:24.417Z,54.40
2023-02-28T20:48:53.004Z,54.40
2023-02-28T20:51:22.472Z,54.80
2023-02-28T20:53:51.439Z,54.90
2023-02-28T20:56:23.836Z,54.40
2023-02-28T20:58:57.627Z,54.30
2023-02-28T21:01:28.558Z,54.40
2023-02-28T21:03:59.868Z,54.30
2023-02-28T21:06:31.531Z,54.20
2023-02-28T21:09:00.750Z,54.20
2023-02-28T21:11:33.920Z,54.20
2023-02-28T21:14:05.320Z,54.30
2023-02-28T21:16:37.464Z,54.80
2023-02-28T21:19:07.269Z,54.30
2023-02-28T21:21:39.186Z,54.30
2023-02-28T21:24:15.937Z,54.50
2023-02-28T21:26:48.186Z,54.30
2023-02-28T21:29:17.422Z,54.40
2023-02-28T21:31:52.086Z,54.20
2023-02-28T21:34:21.032Z,54.30
2023-02-28T21:36:49.667Z,54.30
2023-02-28T21:39:23.305Z,54.30
2023-02-28T21:41:54.225Z,54.50
2023-02-28T21:44:23.289Z,54.80
2023-02-28T21:46:55.041Z,54.00
2023-02-28T21:49:24.930Z,54.20
2023-02-28T21:51:53.609Z,54.80
2023-02-28T21:54:22.287Z,54.50
2023-02-28T21:56:52.800Z,54.20
2023-02-28T21:59:22.042Z,54.70
2023-02-28T22:01:52.043Z,54.80
2023-02-28T22:04:22.826Z,54.40
2023-02-28T22:06:54.400Z,54.40
2023-02-28T22:09:24.365Z,54.30
2023-02-28T22:11:55.730Z,54.50
2023-02-28T22:14:25.870Z,54.70
2023-02-28T22:16:57.299Z,54.40
2023-02-28T22:19:29.270Z,54.00
2023-02-28T22:22:00.831Z,54.40
2023-02-28T22:24:30.584Z,54.20
2023-02-28T22:27:01.958Z,54.00
2023-02-28T22:29:31.779Z,54.00
2023-02-28T22:32:01.803Z,54.20
2023-02-28T22:34:31.277Z,54.20
2023-02-28T22:37:00.858Z,54.00
2023-02-28T22:39:30.471Z,54.10
2023-02-28T22:42:01.971Z,54.00
2023-02-28T22:44:31.225Z,54.30
2023-02-28T22:47:01.903Z,54.80
2023-02-28T22:49:31.265Z,54.10
2023-02-28T22:52:01.060Z,53.90
2023-02-28T22:54:30.583Z,54.00
2023-02-28T22:57:00.721Z,54.30
2023-02-28T22:59:30.351Z,53.90
2023-02-28T23:01:59.709Z,53.90
2023-02-28T23:04:29.691Z,53.60
2023-02-28T23:06:59.367Z,53.90
2023-02-28T23:13:30.697Z,54.10
2023-02-28T23:26:00.126Z,54.40
2023-02-28T23:28:31.812Z,54.10
